Time;durP1;ratioP1;P1;durP2;ratioP2;P2;SDS_P1;SDS_P2;PMS_P1;PMS_P2;Temp;Humidity;BMP_temperature;BMP_pressure;BME280_temperature;BME280_humidity;BME280_pressure;Samples;Min_cycle;Max_cycle;Signal;HPM_P1;HPM_P2
2022/03/16 00:01:47;;;;;;;;;;;9.00;99.90;;;;;;5070987;28;19975;-52
2022/03/16 00:04:14;;;;;;;;;;;9.00;99.90;;;;;;5071176;28;19978;-52
2022/03/16 00:06:42;;;;;;;;;;;8.90;99.90;;;;;;5055720;28;19972;-52
2022/03/16 00:09:09;;;;;;;;;;;8.90;99.90;;;;;;5058156;28;20020;-53
2022/03/16 00:11:36;;;;;;;;;;;8.90;99.90;;;;;;5070806;28;19924;-52
2022/03/16 00:14:03;;;;;;;;;;;9.20;99.90;;;;;;5063375;28;19987;-53
2022/03/16 00:16:30;;;;;;;;;;;9.30;99.90;;;;;;5050840;28;19939;-53
2022/03/16 00:18:56;;;;;;;;;;;9.40;99.90;;;;;;5056195;28;19928;-52
2022/03/16 00:21:23;;;;;;;;;;;9.30;99.90;;;;;;5058470;28;19928;-53
2022/03/16 00:23:51;;;;;;;;;;;9.30;99.90;;;;;;5051337;28;20303;-52
2022/03/16 00:26:18;;;;;;;;;;;9.40;99.90;;;;;;5051230;28;19929;-53
2022/03/16 00:28:45;;;;;;;;;;;9.60;99.90;;;;;;5051045;28;20025;-52
2022/03/16 00:31:12;;;;;;;;;;;9.70;99.90;;;;;;5067966;28;19979;-52
2022/03/16 00:33:39;;;;;;;;;;;9.70;99.90;;;;;;5067352;28;19925;-52
2022/03/16 00:36:06;;;;;;;;;;;9.70;99.90;;;;;;5067066;28;19928;-52
2022/03/16 00:38:33;;;;;;;;;;;9.60;99.90;;;;;;5051403;28;20386;-53
2022/03/16 00:41:04;;;;;;;;;;;9.40;99.90;;;;;;5070570;28;20312;-52
2022/03/16 00:43:31;;;;;;;;;;;9.30;99.90;;;;;;5067814;28;20017;-53
2022/03/16 00:45:58;;;;;;;;;;;9.50;99.90;;;;;;5050553;28;19925;-52
2022/03/16 00:48:24;;;;;;;;;;;9.60;99.90;;;;;;5054388;28;20371;-53
2022/03/16 00:50:51;;;;;;;;;;;9.50;99.90;;;;;;5069924;28;19955;-53
2022/03/16 00:53:18;;;;;;;;;;;9.30;99.90;;;;;;5068745;28;20373;-52
2022/03/16 00:55:45;;;;;;;;;;;9.30;99.90;;;;;;5051610;28;19924;-53
2022/03/16 00:58:13;;;;;;;;;;;9.60;99.90;;;;;;5049850;28;19939;-52
2022/03/16 01:00:40;;;;;;;;;;;9.70;99.90;;;;;;5060109;28;20019;-52
2022/03/16 01:03:06;;;;;;;;;;;9.70;99.90;;;;;;5069867;28;20065;-52
2022/03/16 01:05:33;;;;;;;;;;;9.50;99.90;;;;;;5050709;28;19978;-52
2022/03/16 01:08:00;;;;;;;;;;;9.30;99.90;;;;;;5049779;28;19940;-53
2022/03/16 01:10:27;;;;;;;;;;;9.10;99.90;;;;;;5049895;28;20007;-53
2022/03/16 01:12:55;;;;;;;;;;;9.00;99.90;;;;;;5050661;28;19940;-53
2022/03/16 01:15:24;;;;;;;;;;;9.00;99.90;;;;;;5051736;28;20070;-53
2022/03/16 01:17:51;;;;;;;;;;;9.20;99.90;;;;;;5069191;28;20012;-53
2022/03/16 01:20:18;;;;;;;;;;;9.10;99.90;;;;;;5069570;28;20367;-53
2022/03/16 01:22:45;;;;;;;;;;;9.00;99.90;;;;;;5069325;28;20001;-53
2022/03/16 01:25:11;;;;;;;;;;;9.10;99.90;;;;;;5067402;28;19977;-53
2022/03/16 01:27:38;;;;;;;;;;;9.10;99.90;;;;;;5051429;28;20358;-53
2022/03/16 01:30:06;;;;;;;;;;;9.40;99.90;;;;;;5049581;28;19932;-53
2022/03/16 01:32:35;;;;;;;;;;;9.40;99.90;;;;;;5048351;28;19970;-53
2022/03/16 01:35:01;;;;;;;;;;;9.40;99.90;;;;;;5065081;28;19990;-53
2022/03/16 01:37:30;;;;;;;;;;;9.40;99.90;;;;;;5053304;28;20402;-53
2022/03/16 01:39:57;;;;;;;;;;;9.40;99.90;;;;;;5066210;28;19935;-53
2022/03/16 01:42:25;;;;;;;;;;;9.80;99.90;;;;;;5068344;28;19929;-53
2022/03/16 01:44:52;;;;;;;;;;;9.50;99.90;;;;;;5060573;28;19924;-53
2022/03/16 01:47:20;;;;;;;;;;;9.50;99.90;;;;;;5049441;28;20002;-53
2022/03/16 01:49:49;;;;;;;;;;;9.30;99.90;;;;;;5058168;28;19994;-53
2022/03/16 01:52:16;;;;;;;;;;;9.40;99.90;;;;;;5063949;28;19928;-53
2022/03/16 01:54:43;;;;;;;;;;;9.40;99.90;;;;;;5058002;28;20351;-53
2022/03/16 01:57:11;;;;;;;;;;;9.30;99.90;;;;;;5049482;28;19980;-53
2022/03/16 01:59:38;;;;;;;;;;;9.50;99.90;;;;;;5049286;28;20003;-54
2022/03/16 02:02:05;;;;;;;;;;;9.60;99.90;;;;;;5048675;28;19924;-53
2022/03/16 02:04:32;;;;;;;;;;;9.40;99.90;;;;;;5050289;28;19986;-53
2022/03/16 02:07:00;;;;;;;;;;;8.90;99.90;;;;;;5049257;28;19994;-53
2022/03/16 02:09:27;;;;;;;;;;;8.60;99.90;;;;;;5058587;28;19929;-53
2022/03/16 02:11:54;;;;;;;;;;;8.50;99.90;;;;;;5069105;28;19958;-53
2022/03/16 02:14:21;;;;;;;;;;;8.50;99.90;;;;;;5062561;28;19947;-53
2022/03/16 02:16:48;;;;;;;;;;;8.70;99.90;;;;;;5049452;28;19924;-53
2022/03/16 02:19:15;;;;;;;;;;;8.50;99.90;;;;;;5050415;28;20400;-53
2022/03/16 02:21:45;;;;;;;;;;;8.40;99.90;;;;;;5049192;28;20431;-53
2022/03/16 02:24:13;;;;;;;;;;;8.30;99.90;;;;;;5052045;28;20383;-53
2022/03/16 02:26:40;;;;;;;;;;;8.40;99.90;;;;;;5053360;28;19925;-54
2022/03/16 02:29:07;;;;;;;;;;;8.40;99.90;;;;;;5051097;28;20339;-54
2022/03/16 02:31:34;;;;;;;;;;;8.30;99.90;;;;;;5048622;28;19932;-53
2022/03/16 02:34:00;;;;;;;;;;;8.40;99.90;;;;;;5051911;28;19932;-53
2022/03/16 02:36:27;;;;;;;;;;;8.30;99.90;;;;;;5068701;28;19925;-53
2022/03/16 02:38:54;;;;;;;;;;;8.60;99.90;;;;;;5067032;28;20464;-53
2022/03/16 02:41:22;;;;;;;;;;;8.80;99.90;;;;;;5068648;28;19932;-53
2022/03/16 02:43:49;;;;;;;;;;;8.70;99.90;;;;;;5068378;28;19986;-53
2022/03/16 02:46:15;;;;;;;;;;;8.50;99.90;;;;;;5058185;28;20353;-53
2022/03/16 02:48:43;;;;;;;;;;;8.40;99.90;;;;;;5071957;28;19924;-54
2022/03/16 02:51:11;;;;;;;;;;;8.40;99.90;;;;;;5063754;28;20307;-53
2022/03/16 02:53:38;;;;;;;;;;;8.40;99.90;;;;;;5062444;28;19952;-54
2022/03/16 02:56:05;;;;;;;;;;;8.50;99.90;;;;;;5053431;28;20479;-54
2022/03/16 02:58:33;;;;;;;;;;;8.80;99.90;;;;;;5058618;28;19924;-53
2022/03/16 03:01:00;;;;;;;;;;;8.90;99.90;;;;;;5055777;28;19987;-53
2022/03/16 03:03:27;;;;;;;;;;;8.90;99.90;;;;;;5055628;28;19997;-53
2022/03/16 03:05:54;;;;;;;;;;;8.80;99.90;;;;;;5062826;28;20015;-53
2022/03/16 03:08:21;;;;;;;;;;;9.00;99.90;;;;;;5063476;28;19946;-53
2022/03/16 03:10:48;;;;;;;;;;;8.90;99.90;;;;;;5071837;28;19982;-53
2022/03/16 03:13:15;;;;;;;;;;;8.90;99.90;;;;;;5058948;28;19941;-53
2022/03/16 03:15:43;;;;;;;;;;;8.90;99.90;;;;;;5067250;28;19932;-53
2022/03/16 03:18:10;;;;;;;;;;;8.70;99.90;;;;;;5053797;28;19987;-53
2022/03/16 03:20:38;;;;;;;;;;;8.30;99.90;;;;;;5072168;28;19924;-53
2022/03/16 03:41:25;;;;;;;;;;;8.10;99.90;;;;;;5061049;28;19959;-53
2022/03/16 03:43:51;;;;;;;;;;;8.10;99.90;;;;;;5056248;28;19928;-53
2022/03/16 03:46:18;;;;;;;;;;;8.00;99.90;;;;;;5060353;28;19925;-53
2022/03/16 03:48:45;;;;;;;;;;;8.00;99.90;;;;;;5069667;28;19988;-53
2022/03/16 03:51:12;;;;;;;;;;;7.70;99.90;;;;;;5063610;28;19924;-52
2022/03/16 03:53:39;;;;;;;;;;;7.80;99.90;;;;;;5056879;28;19944;-53
2022/03/16 03:56:08;;;;;;;;;;;7.80;99.90;;;;;;5059927;28;19925;-53
2022/03/16 03:58:38;;;;;;;;;;;7.70;99.90;;;;;;5067459;28;20002;-53
2022/03/16 04:01:06;;;;;;;;;;;7.60;99.90;;;;;;5054467;28;20295;-53
2022/03/16 04:03:33;;;;;;;;;;;7.40;99.90;;;;;;5062688;28;20451;-53
2022/03/16 04:05:59;;;;;;;;;;;7.30;99.90;;;;;;5069258;28;20261;-53
2022/03/16 04:08:26;;;;;;;;;;;7.20;99.90;;;;;;5065300;28;19929;-53
2022/03/16 04:10:53;;;;;;;;;;;7.20;99.90;;;;;;5061141;28;19925;-54
2022/03/16 04:13:20;;;;;;;;;;;7.10;99.90;;;;;;5054374;28;19932;-53
2022/03/16 04:15:48;;;;;;;;;;;7.10;99.90;;;;;;5061281;28;20516;-53
2022/03/16 04:18:15;;;;;;;;;;;7.10;99.90;;;;;;5050934;28;19936;-53
2022/03/16 04:20:42;;;;;;;;;;;7.10;99.90;;;;;;5053458;28;19924;-53
2022/03/16 04:23:09;;;;;;;;;;;7.20;99.90;;;;;;5063650;28;20409;-52
2022/03/16 04:25:35;;;;;;;;;;;7.30;99.90;;;;;;5067460;28;20023;-53
2022/03/16 04:28:02;;;;;;;;;;;7.50;99.90;;;;;;5068850;28;19924;-53
2022/03/16 04:30:29;;;;;;;;;;;7.60;99.90;;;;;;5065429;28;20343;-53
2022/03/16 04:35:25;;;;;;;;;;;7.50;99.90;;;;;;5074305;28;20382;-49
2022/03/16 04:37:52;;;;;;;;;;;7.40;99.90;;;;;;5059535;28;20449;-49
2022/03/16 04:40:18;;;;;;;;;;;7.30;99.90;;;;;;5060656;28;19928;-48
2022/03/16 04:42:45;;;;;;;;;;;7.10;99.90;;;;;;5068882;28;19983;-48
2022/03/16 04:45:12;;;;;;;;;;;7.10;99.90;;;;;;5072129;28;19924;-48
2022/03/16 04:47:39;;;;;;;;;;;7.00;99.90;;;;;;5057019;28;19933;-49
2022/03/16 04:50:07;;;;;;;;;;;7.10;99.90;;;;;;5062280;28;19951;-49
2022/03/16 04:52:42;;;;;;;;;;;7.10;99.90;;;;;;5065264;28;20389;-49
2022/03/16 04:55:09;;;;;;;;;;;7.10;99.90;;;;;;5072277;28;20464;-49
2022/03/16 04:57:36;;;;;;;;;;;7.10;99.90;;;;;;5072441;28;19924;-49
2022/03/16 05:00:03;;;;;;;;;;;7.10;99.90;;;;;;5068359;28;19924;-49
2022/03/16 05:02:29;;;;;;;;;;;7.00;99.90;;;;;;5053591;28;19978;-49
2022/03/16 05:04:56;;;;;;;;;;;7.00;99.90;;;;;;5070718;28;19924;-48
2022/03/16 05:07:23;;;;;;;;;;;6.90;99.90;;;;;;5071072;28;20256;-48
2022/03/16 05:09:51;;;;;;;;;;;6.90;99.90;;;;;;5070226;28;19977;-49
2022/03/16 05:12:18;;;;;;;;;;;7.00;99.90;;;;;;5053561;28;19925;-49
2022/03/16 05:14:44;;;;;;;;;;;7.10;99.90;;;;;;5051858;28;19925;-49
2022/03/16 05:17:11;;;;;;;;;;;6.90;99.90;;;;;;5053010;28;19978;-49
2022/03/16 05:19:38;;;;;;;;;;;6.90;99.90;;;;;;5063718;28;19970;-48
2022/03/16 05:22:05;;;;;;;;;;;7.10;99.90;;;;;;5060803;28;20300;-49
2022/03/16 05:24:31;;;;;;;;;;;7.00;99.90;;;;;;5071576;28;20353;-49
2022/03/16 05:27:00;;;;;;;;;;;6.90;99.90;;;;;;5071383;28;19924;-49
2022/03/16 05:29:26;;;;;;;;;;;6.80;99.90;;;;;;5069678;28;20310;-49
2022/03/16 05:31:53;;;;;;;;;;;6.80;99.90;;;;;;5057418;28;19970;-49
2022/03/16 05:34:20;;;;;;;;;;;6.70;99.90;;;;;;5052343;28;19925;-49
2022/03/16 05:36:46;;;;;;;;;;;6.90;99.90;;;;;;5063405;28;20288;-49
2022/03/16 05:39:13;;;;;;;;;;;6.80;99.90;;;;;;5071694;28;19990;-49
2022/03/16 05:41:40;;;;;;;;;;;6.60;99.90;;;;;;5065725;28;19929;-49
2022/03/16 05:44:09;;;;;;;;;;;6.70;99.90;;;;;;5059057;28;20454;-49
2022/03/16 05:46:36;;;;;;;;;;;6.60;99.90;;;;;;5058113;28;20403;-49
2022/03/16 05:49:03;;;;;;;;;;;6.50;99.90;;;;;;5062630;28;19925;-48
2022/03/16 05:51:29;;;;;;;;;;;6.40;99.90;;;;;;5058609;28;19924;-48
2022/03/16 05:53:56;;;;;;;;;;;6.40;99.90;;;;;;5062430;28;19928;-49
2022/03/16 05:56:23;;;;;;;;;;;6.40;99.90;;;;;;5051363;28;19978;-49
2022/03/16 05:58:49;;;;;;;;;;;6.40;99.90;;;;;;5057958;28;20445;-49
2022/03/16 06:01:18;;;;;;;;;;;6.50;99.90;;;;;;5063027;28;19928;-49
2022/03/16 06:03:44;;;;;;;;;;;6.60;99.90;;;;;;5070057;28;19994;-49
2022/03/16 06:06:11;;;;;;;;;;;6.70;99.90;;;;;;5060898;28;20312;-49
2022/03/16 06:08:38;;;;;;;;;;;6.70;99.90;;;;;;5059698;28;19925;-49
2022/03/16 06:11:08;;;;;;;;;;;6.80;99.90;;;;;;5069162;28;19978;-49
2022/03/16 06:13:34;;;;;;;;;;;7.10;99.90;;;;;;5057392;28;20346;-49
2022/03/16 06:16:04;;;;;;;;;;;7.30;99.90;;;;;;5054909;28;20093;-49
2022/03/16 06:18:32;;;;;;;;;;;7.40;99.90;;;;;;5067088;28;19928;-49
2022/03/16 06:20:59;;;;;;;;;;;7.60;99.90;;;;;;5055816;28;20077;-49
2022/03/16 06:23:25;;;;;;;;;;;7.70;99.90;;;;;;5055681;28;19924;-49
2022/03/16 06:25:52;;;;;;;;;;;7.80;99.90;;;;;;5060715;28;19924;-49
2022/03/16 06:28:19;;;;;;;;;;;8.00;99.90;;;;;;5055149;28;20031;-49
2022/03/16 06:30:46;;;;;;;;;;;8.10;99.90;;;;;;5055250;28;19924;-49
2022/03/16 06:33:13;;;;;;;;;;;8.30;99.90;;;;;;5054518;28;19978;-49
2022/03/16 06:35:41;;;;;;;;;;;8.50;99.90;;;;;;5069602;28;20395;-49
2022/03/16 06:38:08;;;;;;;;;;;8.80;99.90;;;;;;5073228;28;19933;-50
2022/03/16 06:40:34;;;;;;;;;;;9.00;99.90;;;;;;5072839;28;19983;-49
2022/03/16 06:43:01;;;;;;;;;;;9.20;99.90;;;;;;5073318;28;20449;-49
2022/03/16 06:45:29;;;;;;;;;;;9.40;99.90;;;;;;5064386;28;20426;-49
2022/03/16 06:47:56;;;;;;;;;;;9.70;99.90;;;;;;5063331;28;19977;-49
2022/03/16 06:50:23;;;;;;;;;;;9.90;99.90;;;;;;5058494;28;19925;-49
2022/03/16 06:52:53;;;;;;;;;;;10.00;99.90;;;;;;5054530;28;19939;-50
2022/03/16 06:55:20;;;;;;;;;;;10.30;99.90;;;;;;5054935;28;20307;-49
2022/03/16 06:57:46;;;;;;;;;;;10.60;99.90;;;;;;5054986;28;19978;-49
2022/03/16 07:00:14;;;;;;;;;;;10.90;99.90;;;;;;5066461;28;19978;-49
2022/03/16 07:02:51;;;;;;;;;;;11.20;99.90;;;;;;5070795;28;19950;-49
2022/03/16 07:05:17;;;;;;;;;;;11.50;99.90;;;;;;5056182;28;19957;-50
2022/03/16 07:07:44;;;;;;;;;;;11.90;99.90;;;;;;5055721;28;19925;-50
2022/03/16 07:10:12;;;;;;;;;;;11.80;99.90;;;;;;5067611;28;20062;-50
2022/03/16 07:12:39;;;;;;;;;;;11.70;99.90;;;;;;5071910;28;19954;-50
2022/03/16 07:15:07;;;;;;;;;;;11.80;99.90;;;;;;5067571;28;19979;-50
2022/03/16 07:17:33;;;;;;;;;;;12.00;99.90;;;;;;5061467;28;20730;-49
2022/03/16 07:20:00;;;;;;;;;;;12.30;99.90;;;;;;5063727;28;19986;-50
2022/03/16 07:22:27;;;;;;;;;;;12.40;99.90;;;;;;5066649;28;19924;-50
2022/03/16 07:24:53;;;;;;;;;;;12.30;99.90;;;;;;5054247;28;20415;-50
2022/03/16 07:27:22;;;;;;;;;;;12.50;99.90;;;;;;5057603;28;19940;-50
2022/03/16 07:29:49;;;;;;;;;;;13.10;99.90;;;;;;5055152;28;19925;-50
2022/03/16 07:32:16;;;;;;;;;;;12.90;99.90;;;;;;5060703;28;20398;-50
2022/03/16 07:34:43;;;;;;;;;;;13.00;99.90;;;;;;5062232;28;19925;-49
2022/03/16 07:37:11;;;;;;;;;;;13.40;99.90;;;;;;5060220;28;19937;-50
2022/03/16 07:39:37;;;;;;;;;;;13.10;99.90;;;;;;5059646;28;19944;-50
2022/03/16 07:42:04;;;;;;;;;;;13.40;99.90;;;;;;5059277;28;19994;-50
2022/03/16 07:44:33;;;;;;;;;;;13.50;99.90;;;;;;5056493;28;19925;-50
2022/03/16 07:47:02;;;;;;;;;;;13.80;99.90;;;;;;5054015;28;19928;-50
2022/03/16 07:49:29;;;;;;;;;;;13.60;99.90;;;;;;5067253;28;20023;-50
2022/03/16 07:51:56;;;;;;;;;;;14.40;99.90;;;;;;5061446;28;19986;-50
2022/03/16 07:54:23;;;;;;;;;;;14.30;99.90;;;;;;5052879;28;19928;-50
2022/03/16 07:56:49;;;;;;;;;;;14.70;99.90;;;;;;5065413;28;19932;-51
2022/03/16 07:59:16;;;;;;;;;;;15.10;99.90;;;;;;5055308;28;19928;-50
2022/03/16 08:01:44;;;;;;;;;;;15.10;99.90;;;;;;5055114;28;19925;-50
2022/03/16 08:04:12;;;;;;;;;;;15.30;99.90;;;;;;5053293;28;19928;-50
2022/03/16 08:06:40;;;;;;;;;;;15.30;99.90;;;;;;5068965;28;19925;-50
2022/03/16 08:09:06;;;;;;;;;;;15.10;99.90;;;;;;5059862;28;20002;-51
2022/03/16 08:11:34;;;;;;;;;;;15.40;99.90;;;;;;5059960;28;20027;-50
2022/03/16 08:14:00;;;;;;;;;;;16.00;99.90;;;;;;5072930;28;20016;-50
2022/03/16 08:16:27;;;;;;;;;;;16.00;99.90;;;;;;5067696;28;19978;-50
2022/03/16 08:18:55;;;;;;;;;;;16.80;99.90;;;;;;5061993;28;19925;-50
2022/03/16 08:21:22;;;;;;;;;;;17.30;99.90;;;;;;5056507;28;19924;-51
2022/03/16 08:23:49;;;;;;;;;;;18.20;99.90;;;;;;5053106;28;19925;-51
2022/03/16 08:26:16;;;;;;;;;;;18.50;99.90;;;;;;5057540;28;20481;-51
2022/03/16 08:28:45;;;;;;;;;;;18.60;99.90;;;;;;5063771;28;19928;-51
2022/03/16 08:31:12;;;;;;;;;;;19.10;99.90;;;;;;5059557;28;19931;-51
2022/03/16 08:33:38;;;;;;;;;;;19.80;99.90;;;;;;5055863;28;20015;-51
2022/03/16 08:36:08;;;;;;;;;;;19.90;99.90;;;;;;5065088;28;19924;-50
2022/03/16 08:38:36;;;;;;;;;;;20.50;99.90;;;;;;5069681;28;20388;-51
2022/03/16 08:41:03;;;;;;;;;;;20.60;99.90;;;;;;5054591;28;19979;-50
2022/03/16 08:43:30;;;;;;;;;;;21.60;98.20;;;;;;5067843;28;19981;-51
2022/03/16 08:45:57;;;;;;;;;;;21.80;97.30;;;;;;5064204;28;19925;-50
2022/03/16 08:48:24;;;;;;;;;;;21.30;95.80;;;;;;5053308;28;19932;-50
2022/03/16 08:50:51;;;;;;;;;;;21.30;95.50;;;;;;5057891;28;19940;-50
2022/03/16 08:53:19;;;;;;;;;;;20.30;96.70;;;;;;5055667;28;19978;-50
2022/03/16 08:55:46;;;;;;;;;;;21.70;94.80;;;;;;5063170;28;19929;-51
2022/03/16 08:58:14;;;;;;;;;;;22.00;93.80;;;;;;5052543;28;19929;-51
2022/03/16 09:00:41;;;;;;;;;;;22.50;92.80;;;;;;5052604;28;20400;-51
2022/03/16 09:03:07;;;;;;;;;;;22.60;92.20;;;;;;5068178;28;20039;-51
2022/03/16 09:05:34;;;;;;;;;;;23.60;91.10;;;;;;5062193;28;19924;-51
2022/03/16 09:08:02;;;;;;;;;;;23.70;88.00;;;;;;5067377;28;20416;-51
2022/03/16 09:10:31;;;;;;;;;;;23.60;86.80;;;;;;5067795;28;19964;-49
2022/03/16 09:12:57;;;;;;;;;;;23.70;86.40;;;;;;5052379;28;19971;-51
2022/03/16 09:15:24;;;;;;;;;;;23.80;84.80;;;;;;5058835;28;19978;-50
2022/03/16 09:17:52;;;;;;;;;;;23.50;84.20;;;;;;5061893;28;19925;-51
2022/03/16 09:20:19;;;;;;;;;;;24.10;86.10;;;;;;5060432;28;19935;-51
2022/03/16 09:22:46;;;;;;;;;;;23.70;83.80;;;;;;5061743;28;20392;-51
2022/03/16 09:25:12;;;;;;;;;;;23.70;83.70;;;;;;5051728;28;19978;-51
2022/03/16 09:27:40;;;;;;;;;;;24.10;82.30;;;;;;5066363;28;19925;-51
2022/03/16 09:30:08;;;;;;;;;;;24.40;79.40;;;;;;5071909;28;19928;-51
2022/03/16 09:32:35;;;;;;;;;;;24.10;80.00;;;;;;5065486;28;19977;-51
2022/03/16 09:35:01;;;;;;;;;;;23.80;79.80;;;;;;5062547;28;19994;-51
2022/03/16 09:37:29;;;;;;;;;;;24.30;78.60;;;;;;5058153;28;19925;-51
2022/03/16 09:39:56;;;;;;;;;;;24.30;78.40;;;;;;5062168;28;19924;-51
2022/03/16 09:42:24;;;;;;;;;;;25.20;78.90;;;;;;5062842;28;19925;-51
2022/03/16 09:44:53;;;;;;;;;;;25.80;77.20;;;;;;5054688;28;19964;-51
2022/03/16 09:47:22;;;;;;;;;;;26.10;77.20;;;;;;5066682;28;19932;-51
2022/03/16 09:49:49;;;;;;;;;;;25.50;76.50;;;;;;5059856;28;20007;-51
2022/03/16 09:52:16;;;;;;;;;;;25.30;75.80;;;;;;5056616;28;20605;-51
2022/03/16 09:54:42;;;;;;;;;;;24.80;80.80;;;;;;5053087;28;20066;-51
2022/03/16 09:57:09;;;;;;;;;;;24.60;82.90;;;;;;5065716;28;19951;-50
2022/03/16 09:59:38;;;;;;;;;;;24.10;83.30;;;;;;5051979;28;20419;-50
2022/03/16 10:02:09;;;;;;;;;;;24.50;82.40;;;;;;5056145;28;19925;-51
2022/03/16 10:04:37;;;;;;;;;;;24.10;84.90;;;;;;5051310;28;19929;-50
2022/03/16 10:07:04;;;;;;;;;;;24.50;84.20;;;;;;5057227;28;19931;-51
2022/03/16 10:15:04;;;;;;;;;;;22.40;88.20;;;;;;5057328;28;21653;-51
2022/03/16 10:17:45;;;;;;;;;;;22.40;88.60;;;;;;5052168;28;20067;-51
2022/03/16 10:20:13;;;;;;;;;;;22.50;87.80;;;;;;5058603;28;19932;-50
2022/03/16 10:22:41;;;;;;;;;;;22.40;88.90;;;;;;5056471;28;20464;-51
2022/03/16 10:25:08;;;;;;;;;;;23.00;87.70;;;;;;5059826;28;19925;-50
2022/03/16 10:27:37;;;;;;;;;;;23.00;89.40;;;;;;5051125;28;19924;-51
2022/03/16 10:30:05;;;;;;;;;;;23.20;88.50;;;;;;5052703;28;20007;-50
2022/03/16 10:32:34;;;;;;;;;;;22.40;88.00;;;;;;5061936;28;19929;-51
2022/03/16 10:35:05;;;;;;;;;;;21.20;89.60;;;;;;5051468;28;20356;-51
2022/03/16 10:37:33;;;;;;;;;;;20.70;90.80;;;;;;5064222;28;19928;-51
2022/03/16 10:39:59;;;;;;;;;;;20.10;91.60;;;;;;5067138;28;20367;-51
2022/03/16 10:48:12;;;;;;;;;;;21.70;90.70;;;;;;5056719;28;19932;-50
2022/03/16 10:50:40;;;;;;;;;;;22.50;89.40;;;;;;5061301;28;19936;-51
2022/03/16 10:53:06;;;;;;;;;;;22.80;87.90;;;;;;5069479;28;19925;-52
2022/03/16 10:55:34;;;;;;;;;;;22.70;88.30;;;;;;5068728;28;20229;-50
2022/03/16 10:58:01;;;;;;;;;;;22.70;87.90;;;;;;5068713;28;19925;-50
2022/03/16 11:00:28;;;;;;;;;;;22.50;87.60;;;;;;5058918;28;19986;-51
2022/03/16 11:02:56;;;;;;;;;;;22.00;88.40;;;;;;5070359;28;19924;-50
2022/03/16 11:05:24;;;;;;;;;;;21.40;89.60;;;;;;5108548;22;20360;-58
2022/03/16 11:07:52;;;;;;;;;;;20.80;90.70;;;;;;5092605;28;19989;-58
2022/03/16 11:10:19;;;;;;;;;;;19.60;92.20;;;;;;5092513;28;20266;-59
2022/03/16 11:15:30;;;;;;;;;;;19.80;92.10;;;;;;5082260;28;20295;-57
2022/03/16 11:17:57;;;;;;;;;;;20.20;91.30;;;;;;5074348;28;19961;-57
2022/03/16 11:20:28;;;;;;;;;;;20.00;92.00;;;;;;5065542;28;19928;-57
2022/03/16 11:25:48;;;;;;;;;;;18.80;93.20;;;;;;5073619;28;19927;-57
2022/03/16 11:28:16;;;;;;;;;;;18.30;94.00;;;;;;5073966;28;19974;-57
2022/03/16 11:30:43;;;;;;;;;;;18.30;94.50;;;;;;5074359;28;19925;-58
2022/03/16 11:33:15;;;;;;;;;;;18.50;94.40;;;;;;5073665;28;19944;-57
2022/03/16 11:35:45;;;;;;;;;;;18.70;94.30;;;;;;5074099;28;19932;-57
2022/03/16 11:38:13;;;;;;;;;;;17.90;94.60;;;;;;5073679;28;19931;-57
2022/03/16 11:40:41;;;;;;;;;;;18.30;95.50;;;;;;5073549;28;19960;-57
2022/03/16 11:43:15;;;;;;;;;;;18.00;95.20;;;;;;5073835;28;19951;-57
2022/03/16 11:45:43;;;;;;;;;;;17.80;96.60;;;;;;5053701;28;20533;-57
2022/03/16 11:48:31;;;;;;;;;;;17.80;96.40;;;;;;5053267;28;20387;-56
2022/03/16 11:51:19;;;;;;;;;;;18.30;94.60;;;;;;5069020;28;19924;-57
2022/03/16 11:54:09;;;;;;;;;;;18.70;95.30;;;;;;5068622;28;20027;-57
2022/03/16 11:56:44;;;;;;;;;;;18.80;93.80;;;;;;5057095;28;19925;-57
2022/03/16 11:59:28;;;;;;;;;;;19.00;92.80;;;;;;5068270;28;19925;-57
2022/03/16 12:02:05;;;;;;;;;;;19.20;92.30;;;;;;5073300;28;20023;-57
2022/03/16 12:04:32;;;;;;;;;;;19.30;93.10;;;;;;5071343;28;19978;-57
2022/03/16 12:07:02;;;;;;;;;;;19.50;92.90;;;;;;5052903;28;20453;-57
2022/03/16 12:09:34;;;;;;;;;;;19.60;92.30;;;;;;5070542;28;19948;-57
2022/03/16 12:14:57;;;;;;;;;;;19.60;92.90;;;;;;5062601;28;20287;-57
2022/03/16 12:17:24;;;;;;;;;;;19.00;93.00;;;;;;5072355;28;19993;-56
2022/03/16 12:20:06;;;;;;;;;;;19.50;92.40;;;;;;5072026;28;19924;-57
2022/03/16 12:22:37;;;;;;;;;;;19.70;92.10;;;;;;5070512;28;19972;-57
2022/03/16 12:25:26;;;;;;;;;;;19.60;92.10;;;;;;5071781;28;19925;-57
2022/03/16 12:30:39;;;;;;;;;;;18.60;92.80;;;;;;5052486;28;20029;-58
2022/03/16 12:33:06;;;;;;;;;;;18.60;92.80;;;;;;5067599;28;19935;-57
2022/03/16 12:35:34;;;;;;;;;;;19.00;93.60;;;;;;5069223;28;19932;-57
2022/03/16 12:38:01;;;;;;;;;;;18.80;92.50;;;;;;5071318;28;19924;-57
2022/03/16 12:40:29;;;;;;;;;;;19.20;92.30;;;;;;5071221;28;20339;-58
2022/03/16 12:42:57;;;;;;;;;;;19.00;92.80;;;;;;5064212;28;19929;-57
2022/03/16 12:45:25;;;;;;;;;;;19.30;93.50;;;;;;5061557;28;19936;-56
2022/03/16 12:48:10;;;;;;;;;;;18.70;94.30;;;;;;5063167;28;20027;-57
2022/03/16 12:50:43;;;;;;;;;;;18.70;95.50;;;;;;5066773;28;20522;-56
2022/03/16 12:53:10;;;;;;;;;;;18.90;96.10;;;;;;5069429;28;20310;-56
2022/03/16 12:55:37;;;;;;;;;;;18.70;95.90;;;;;;5068761;28;19936;-56
2022/03/16 12:58:05;;;;;;;;;;;18.30;96.10;;;;;;5071006;28;20362;-56
2022/03/16 13:00:32;;;;;;;;;;;18.00;97.00;;;;;;5063272;28;19924;-57
2022/03/16 13:03:12;;;;;;;;;;;17.50;97.50;;;;;;5070883;28;20398;-56
2022/03/16 13:05:39;;;;;;;;;;;17.20;97.90;;;;;;5070659;28;19924;-56
2022/03/16 13:08:06;;;;;;;;;;;17.30;97.80;;;;;;5068569;28;20335;-56
2022/03/16 13:11:14;;;;;;;;;;;17.20;98.10;;;;;;5070868;28;20361;-56
2022/03/16 13:13:22;;;;;;;;;;;17.00;98.30;;;;;;5070227;28;19928;-57
2022/03/16 13:15:50;;;;;;;;;;;17.20;98.60;;;;;;5051496;28;20050;-57
2022/03/16 13:18:28;;;;;;;;;;;17.60;98.20;;;;;;5061129;28;19964;-57
2022/03/16 13:20:56;;;;;;;;;;;17.20;98.30;;;;;;5065434;28;20294;-59
2022/03/16 13:23:28;;;;;;;;;;;17.20;98.50;;;;;;5059770;28;19933;-58
2022/03/16 13:26:05;;;;;;;;;;;17.20;98.30;;;;;;5058960;28;20020;-57
2022/03/16 13:28:34;;;;;;;;;;;17.10;98.40;;;;;;5077344;28;20114;-58
2022/03/16 13:31:01;;;;;;;;;;;16.90;98.70;;;;;;5070530;28;20444;-58
2022/03/16 13:33:28;;;;;;;;;;;16.80;99.20;;;;;;5069769;28;19952;-58
2022/03/16 13:36:08;;;;;;;;;;;17.00;99.10;;;;;;5066084;28;19981;-57
2022/03/16 13:38:37;;;;;;;;;;;17.10;98.70;;;;;;5068660;28;19928;-57
2022/03/16 13:41:10;;;;;;;;;;;16.90;98.80;;;;;;5069747;28;19931;-57
2022/03/16 13:43:39;;;;;;;;;;;16.90;99.30;;;;;;5070080;28;19932;-56
2022/03/16 13:46:08;;;;;;;;;;;16.90;99.10;;;;;;5070350;28;19952;-57
2022/03/16 13:48:37;;;;;;;;;;;16.80;99.40;;;;;;5063311;28;19924;-57
2022/03/16 13:51:06;;;;;;;;;;;17.10;99.20;;;;;;5068936;28;19929;-57
2022/03/16 13:53:40;;;;;;;;;;;17.30;98.70;;;;;;5063505;28;19973;-56
2022/03/16 13:56:12;;;;;;;;;;;17.40;98.70;;;;;;5063620;28;19978;-57
2022/03/16 13:58:41;;;;;;;;;;;17.10;98.90;;;;;;5067279;28;19928;-57
2022/03/16 14:01:08;;;;;;;;;;;17.30;99.10;;;;;;5068213;28;19982;-57
2022/03/16 14:03:35;;;;;;;;;;;17.10;99.00;;;;;;5069285;28;20417;-57
2022/03/16 14:06:11;;;;;;;;;;;17.10;99.20;;;;;;5068759;28;20374;-57
2022/03/16 14:08:38;;;;;;;;;;;17.10;99.40;;;;;;5068605;28;20363;-56
2022/03/16 14:11:04;;;;;;;;;;;17.00;99.70;;;;;;5066576;28;19940;-57
2022/03/16 14:13:38;;;;;;;;;;;17.00;99.90;;;;;;5069159;28;20301;-57
2022/03/16 14:16:13;;;;;;;;;;;17.10;99.90;;;;;;5068985;28;19936;-57
2022/03/16 14:18:40;;;;;;;;;;;16.90;99.90;;;;;;5069248;28;19924;-57
2022/03/16 14:21:08;;;;;;;;;;;17.20;99.90;;;;;;5068561;28;20443;-57
2022/03/16 14:23:35;;;;;;;;;;;17.50;99.90;;;;;;5068886;28;19935;-57
2022/03/16 14:26:02;;;;;;;;;;;17.70;99.90;;;;;;5065863;28;19993;-56
2022/03/16 14:28:29;;;;;;;;;;;17.60;99.90;;;;;;5068799;28;19929;-58
2022/03/16 14:30:55;;;;;;;;;;;17.40;99.90;;;;;;5069184;28;19989;-57
2022/03/16 14:33:25;;;;;;;;;;;17.70;99.90;;;;;;5068615;28;19951;-57
2022/03/16 14:35:52;;;;;;;;;;;17.90;99.90;;;;;;5069003;28;19924;-57
2022/03/16 14:38:20;;;;;;;;;;;18.00;99.90;;;;;;5069795;28;20410;-57
2022/03/16 14:40:54;;;;;;;;;;;18.00;99.90;;;;;;5072760;28;19925;-57
2022/03/16 14:43:22;;;;;;;;;;;17.90;99.90;;;;;;5072926;28;19978;-56
2022/03/16 14:45:48;;;;;;;;;;;18.10;99.90;;;;;;5073089;28;19932;-59
2022/03/16 14:48:15;;;;;;;;;;;18.10;99.90;;;;;;5072813;28;20017;-57
2022/03/16 14:50:43;;;;;;;;;;;17.70;99.90;;;;;;5071999;28;19928;-57
2022/03/16 14:53:10;;;;;;;;;;;17.80;99.90;;;;;;5072394;28;19932;-57
2022/03/16 14:55:37;;;;;;;;;;;17.70;99.90;;;;;;5072874;28;19925;-57
2022/03/16 14:58:06;;;;;;;;;;;17.70;99.90;;;;;;5072562;28;19981;-57
2022/03/16 15:00:33;;;;;;;;;;;17.40;99.90;;;;;;5072733;28;19978;-57
2022/03/16 15:03:00;;;;;;;;;;;17.50;99.90;;;;;;5072871;28;19932;-57
2022/03/16 15:05:27;;;;;;;;;;;17.10;99.90;;;;;;5072512;28;19977;-56
2022/03/16 15:07:55;;;;;;;;;;;17.30;99.90;;;;;;5072382;28;20298;-57
2022/03/16 15:10:22;;;;;;;;;;;17.20;99.90;;;;;;5072806;28;19924;-57
2022/03/16 15:12:49;;;;;;;;;;;17.20;99.90;;;;;;5072167;28;19928;-57